sensor_id;sensor_type;location;lat;lon;timestamp;pressure;altitude;pressure_sealevel;temperature;humidity
35952;BME280;22035;51.406;16.194;2023-05-21T00:01:33;100465.00;;;32.32;19.79
35952;BME280;22035;51.406;16.194;2023-05-21T00:03:58;100462.08;;;32.36;19.75
35952;BME280;22035;51.406;16.194;2023-05-21T00:06:24;100460.13;;;32.33;19.79
35952;BME280;22035;51.406;16.194;2023-05-21T00:08:50;100459.08;;;32.46;19.62
35952;BME280;22035;51.406;16.194;2023-05-21T00:11:15;100460.40;;;32.40;19.68
35952;BME280;22035;51.406;16.194;2023-05-21T00:13:41;100459.45;;;32.43;19.68
35952;BME280;22035;51.406;16.194;2023-05-21T00:16:07;100459.22;;;32.35;19.75
35952;BME280;22035;51.406;16.194;2023-05-21T00:18:32;100457.47;;;32.48;19.61
35952;BME280;22035;51.406;16.194;2023-05-21T00:20:58;100456.14;;;32.38;19.71
35952;BME280;22035;51.406;16.194;2023-05-21T00:23:24;100454.64;;;32.31;19.78
35952;BME280;22035;51.406;16.194;2023-05-21T00:25:50;100456.15;;;32.37;19.73
35952;BME280;22035;51.406;16.194;2023-05-21T00:28:16;100455.01;;;32.41;19.68
35952;BME280;22035;51.406;16.194;2023-05-21T00:30:42;100458.39;;;32.52;19.54
35952;BME280;22035;51.406;16.194;2023-05-21T00:33:07;100457.40;;;32.51;19.55
35952;BME280;22035;51.406;16.194;2023-05-21T00:35:33;100459.30;;;32.39;19.69
35952;BME280;22035;51.406;16.194;2023-05-21T00:37:59;100459.66;;;32.41;19.67
35952;BME280;22035;51.406;16.194;2023-05-21T00:40:24;100458.40;;;32.40;19.69
35952;BME280;22035;51.406;16.194;2023-05-21T00:42:50;100457.75;;;32.42;19.66
35952;BME280;22035;51.406;16.194;2023-05-21T00:45:16;100455.61;;;32.42;19.66
35952;BME280;22035;51.406;16.194;2023-05-21T00:47:42;100459.82;;;32.39;19.69
35952;BME280;22035;51.406;16.194;2023-05-21T00:50:10;100462.51;;;32.32;19.77
35952;BME280;22035;51.406;16.194;2023-05-21T00:52:36;100455.55;;;32.37;19.71
35952;BME280;22035;51.406;16.194;2023-05-21T00:55:02;100454.89;;;32.45;19.62
35952;BME280;22035;51.406;16.194;2023-05-21T00:57:28;100460.20;;;32.50;19.57
35952;BME280;22035;51.406;16.194;2023-05-21T00:59:53;100460.44;;;32.45;19.62
35952;BME280;22035;51.406;16.194;2023-05-21T01:02:19;100458.03;;;32.44;19.62
35952;BME280;22035;51.406;16.194;2023-05-21T01:04:45;100457.64;;;32.43;19.62
35952;BME280;22035;51.406;16.194;2023-05-21T01:07:11;100458.88;;;32.46;19.61
35952;BME280;22035;51.406;16.194;2023-05-21T01:09:37;100459.65;;;32.51;19.53
35952;BME280;22035;51.406;16.194;2023-05-21T01:12:04;100465.48;;;32.42;19.63
35952;BME280;22035;51.406;16.194;2023-05-21T01:14:30;100465.04;;;32.41;19.66
35952;BME280;22035;51.406;16.194;2023-05-21T01:16:56;100462.42;;;32.41;19.67
35952;BME280;22035;51.406;16.194;2023-05-21T01:19:23;100461.85;;;32.31;19.76
35952;BME280;22035;51.406;16.194;2023-05-21T01:21:51;100457.66;;;32.44;19.62
35952;BME280;22035;51.406;16.194;2023-05-21T01:24:18;100454.14;;;32.44;19.62
35952;BME280;22035;51.406;16.194;2023-05-21T01:26:44;100451.49;;;32.45;19.61
35952;BME280;22035;51.406;16.194;2023-05-21T01:29:09;100451.68;;;32.45;19.61
35952;BME280;22035;51.406;16.194;2023-05-21T01:31:44;100449.35;;;32.51;19.53
35952;BME280;22035;51.406;16.194;2023-05-21T01:34:14;100449.03;;;32.35;19.72
35952;BME280;22035;51.406;16.194;2023-05-21T01:36:45;100445.32;;;32.46;19.57
35952;BME280;22035;51.406;16.194;2023-05-21T01:39:16;100443.95;;;32.38;19.69
35952;BME280;22035;51.406;16.194;2023-05-21T01:41:44;100444.76;;;32.42;19.64
35952;BME280;22035;51.406;16.194;2023-05-21T01:44:12;100444.49;;;32.38;19.68
35952;BME280;22035;51.406;16.194;2023-05-21T01:46:41;100443.79;;;32.44;19.61
35952;BME280;22035;51.406;16.194;2023-05-21T01:49:07;100446.20;;;32.49;19.56
35952;BME280;22035;51.406;16.194;2023-05-21T01:51:33;100442.60;;;32.42;19.63
35952;BME280;22035;51.406;16.194;2023-05-21T01:54:00;100442.34;;;32.43;19.63
35952;BME280;22035;51.406;16.194;2023-05-21T01:56:26;100443.02;;;32.31;19.76
35952;BME280;22035;51.406;16.194;2023-05-21T01:58:51;100440.52;;;32.43;19.64
35952;BME280;22035;51.406;16.194;2023-05-21T02:01:17;100439.17;;;32.50;19.56
35952;BME280;22035;51.406;16.194;2023-05-21T02:03:43;100438.39;;;32.48;19.59
35952;BME280;22035;51.406;16.194;2023-05-21T02:06:08;100440.27;;;32.45;19.61
35952;BME280;22035;51.406;16.194;2023-05-21T02:08:34;100439.37;;;32.49;19.56
35952;BME280;22035;51.406;16.194;2023-05-21T02:11:00;100438.75;;;32.37;19.71
35952;BME280;22035;51.406;16.194;2023-05-21T02:13:25;100437.15;;;32.49;19.57
35952;BME280;22035;51.406;16.194;2023-05-21T02:15:51;100434.15;;;32.46;19.60
35952;BME280;22035;51.406;16.194;2023-05-21T02:18:17;100433.84;;;32.44;19.62
35952;BME280;22035;51.406;16.194;2023-05-21T02:20:42;100434.26;;;32.38;19.70
35952;BME280;22035;51.406;16.194;2023-05-21T02:23:08;100434.08;;;32.31;19.76
35952;BME280;22035;51.406;16.194;2023-05-21T02:25:34;100435.55;;;32.28;19.80
35952;BME280;22035;51.406;16.194;2023-05-21T02:28:00;100432.84;;;32.42;19.64
35952;BME280;22035;51.406;16.194;2023-05-21T02:30:26;100431.77;;;32.40;19.67
35952;BME280;22035;51.406;16.194;2023-05-21T02:32:52;100429.40;;;32.38;19.69
35952;BME280;22035;51.406;16.194;2023-05-21T02:35:17;100425.55;;;32.37;19.70
35952;BME280;22035;51.406;16.194;2023-05-21T02:37:43;100425.69;;;32.46;19.61
35952;BME280;22035;51.406;16.194;2023-05-21T02:40:10;100423.83;;;32.39;19.68
35952;BME280;22035;51.406;16.194;2023-05-21T02:42:36;100422.82;;;32.45;19.61
35952;BME280;22035;51.406;16.194;2023-05-21T02:45:02;100425.21;;;32.32;19.76
35952;BME280;22035;51.406;16.194;2023-05-21T02:47:28;100424.25;;;32.24;19.85
35952;BME280;22035;51.406;16.194;2023-05-21T02:49:53;100423.69;;;32.33;19.74
35952;BME280;22035;51.406;16.194;2023-05-21T02:52:19;100427.02;;;32.50;19.56
35952;BME280;22035;51.406;16.194;2023-05-21T02:54:45;100430.89;;;32.43;19.62
35952;BME280;22035;51.406;16.194;2023-05-21T02:57:11;100430.96;;;32.37;19.67
35952;BME280;22035;51.406;16.194;2023-05-21T02:59:37;100432.80;;;32.43;19.62
35952;BME280;22035;51.406;16.194;2023-05-21T03:02:03;100432.18;;;32.49;19.57
35952;BME280;22035;51.406;16.194;2023-05-21T03:04:29;100431.90;;;32.41;19.65
35952;BME280;22035;51.406;16.194;2023-05-21T03:06:55;100429.41;;;32.45;19.59
35952;BME280;22035;51.406;16.194;2023-05-21T03:09:21;100426.70;;;32.48;19.55
35952;BME280;22035;51.406;16.194;2023-05-21T03:11:47;100426.18;;;32.41;19.64
35952;BME280;22035;51.406;16.194;2023-05-21T03:14:13;100424.08;;;32.46;19.58
35952;BME280;22035;51.406;16.194;2023-05-21T03:16:39;100423.40;;;32.37;19.68
35952;BME280;22035;51.406;16.194;2023-05-21T03:19:05;100425.68;;;32.35;19.72
35952;BME280;22035;51.406;16.194;2023-05-21T03:21:31;100423.41;;;32.38;19.67
35952;BME280;22035;51.406;16.194;2023-05-21T03:23:56;100427.93;;;32.34;19.73
35952;BME280;22035;51.406;16.194;2023-05-21T03:26:22;100424.24;;;32.37;19.70
35952;BME280;22035;51.406;16.194;2023-05-21T03:28:48;100427.37;;;32.33;19.74
35952;BME280;22035;51.406;16.194;2023-05-21T03:31:13;100424.94;;;32.35;19.73
35952;BME280;22035;51.406;16.194;2023-05-21T03:33:39;100425.03;;;32.38;19.71
35952;BME280;22035;51.406;16.194;2023-05-21T03:36:05;100422.73;;;32.37;19.70
35952;BME280;22035;51.406;16.194;2023-05-21T03:38:30;100426.23;;;32.45;19.62
35952;BME280;22035;51.406;16.194;2023-05-21T03:40:56;100422.80;;;32.51;19.56
35952;BME280;22035;51.406;16.194;2023-05-21T03:43:22;100418.36;;;32.48;19.59
35952;BME280;22035;51.406;16.194;2023-05-21T03:45:47;100412.45;;;32.46;19.62
35952;BME280;22035;51.406;16.194;2023-05-21T03:48:13;100412.67;;;32.38;19.71
35952;BME280;22035;51.406;16.194;2023-05-21T03:50:39;100415.98;;;32.26;19.86
35952;BME280;22035;51.406;16.194;2023-05-21T03:53:04;100417.43;;;32.38;19.72
35952;BME280;22035;51.406;16.194;2023-05-21T03:55:30;100421.14;;;32.30;19.81
35952;BME280;22035;51.406;16.194;2023-05-21T03:57:56;100421.12;;;32.28;19.84
35952;BME280;22035;51.406;16.194;2023-05-21T04:00:21;100418.21;;;32.21;19.90
35952;BME280;22035;51.406;16.194;2023-05-21T04:02:47;100418.95;;;32.22;19.92
35952;BME280;22035;51.406;16.194;2023-05-21T04:05:13;100417.76;;;32.31;19.83
35952;BME280;22035;51.406;16.194;2023-05-21T04:07:38;100417.79;;;32.24;19.91
35952;BME280;22035;51.406;16.194;2023-05-21T04:10:05;100416.08;;;32.24;19.92
35952;BME280;22035;51.406;16.194;2023-05-21T04:12:31;100417.92;;;32.30;19.86
35952;BME280;22035;51.406;16.194;2023-05-21T04:14:56;100417.84;;;32.33;19.83
35952;BME280;22035;51.406;16.194;2023-05-21T04:17:22;100415.52;;;32.20;19.96
35952;BME280;22035;51.406;16.194;2023-05-21T04:19:48;100421.46;;;32.37;19.81
35952;BME280;22035;51.406;16.194;2023-05-21T04:22:13;100420.39;;;32.44;19.73
35952;BME280;22035;51.406;16.194;2023-05-21T04:24:39;100422.68;;;32.44;19.74
35952;BME280;22035;51.406;16.194;2023-05-21T04:27:05;100422.07;;;32.46;19.74
35952;BME280;22035;51.406;16.194;2023-05-21T04:29:30;100423.05;;;32.43;19.78
35952;BME280;22035;51.406;16.194;2023-05-21T04:31:56;100421.19;;;32.39;19.90
35952;BME280;22035;51.406;16.194;2023-05-21T04:34:22;100419.48;;;32.35;19.89
35952;BME280;22035;51.406;16.194;2023-05-21T04:36:47;100419.37;;;32.46;19.74
35952;BME280;22035;51.406;16.194;2023-05-21T04:39:13;100420.48;;;32.56;19.68
35952;BME280;22035;51.406;16.194;2023-05-21T04:41:39;100417.75;;;32.43;19.83
35952;BME280;22035;51.406;16.194;2023-05-21T04:44:05;100418.45;;;32.48;19.79
35952;BME280;22035;51.406;16.194;2023-05-21T04:46:31;100419.68;;;32.52;19.75
35952;BME280;22035;51.406;16.194;2023-05-21T04:48:57;100415.16;;;32.52;19.74
35952;BME280;22035;51.406;16.194;2023-05-21T04:51:23;100412.28;;;32.47;19.80
35952;BME280;22035;51.406;16.194;2023-05-21T04:53:48;100413.46;;;32.63;19.64
35952;BME280;22035;51.406;16.194;2023-05-21T04:56:15;100412.91;;;32.60;19.69
35952;BME280;22035;51.406;16.194;2023-05-21T04:58:40;100414.59;;;32.71;19.57
35952;BME280;22035;51.406;16.194;2023-05-21T05:01:06;100412.88;;;32.70;19.60
35952;BME280;22035;51.406;16.194;2023-05-21T05:03:32;100408.91;;;32.66;19.66
35952;BME280;22035;51.406;16.194;2023-05-21T05:05:58;100410.55;;;32.65;19.68
35952;BME280;22035;51.406;16.194;2023-05-21T05:08:23;100407.75;;;32.69;19.62
35952;BME280;22035;51.406;16.194;2023-05-21T05:10:49;100405.66;;;32.82;19.48
35952;BME280;22035;51.406;16.194;2023-05-21T05:13:15;100404.20;;;32.81;19.52
35952;BME280;22035;51.406;16.194;2023-05-21T05:15:40;100407.31;;;32.77;19.59
35952;BME280;22035;51.406;16.194;2023-05-21T05:18:06;100407.80;;;32.78;19.59
35952;BME280;22035;51.406;16.194;2023-05-21T05:20:31;100403.76;;;32.81;19.57
35952;BME280;22035;51.406;16.194;2023-05-21T05:22:57;100403.76;;;32.83;19.58
35952;BME280;22035;51.406;16.194;2023-05-21T05:25:23;100402.79;;;32.92;19.49
35952;BME280;22035;51.406;16.194;2023-05-21T05:27:48;100402.80;;;33.03;19.37
35952;BME280;22035;51.406;16.194;2023-05-21T05:30:14;100404.34;;;33.03;19.36
35952;BME280;22035;51.406;16.194;2023-05-21T05:32:40;100404.59;;;33.09;19.30
35952;BME280;22035;51.406;16.194;2023-05-21T05:35:07;100405.41;;;33.07;19.31
35952;BME280;22035;51.406;16.194;2023-05-21T05:37:33;100406.35;;;33.07;19.33
35952;BME280;22035;51.406;16.194;2023-05-21T05:39:58;100406.57;;;33.02;19.38
35952;BME280;22035;51.406;16.194;2023-05-21T05:42:24;100407.20;;;32.85;19.59
35952;BME280;22035;51.406;16.194;2023-05-21T05:44:50;100407.13;;;32.97;19.48
35952;BME280;22035;51.406;16.194;2023-05-21T05:47:16;100405.21;;;33.13;19.30
35952;BME280;22035;51.406;16.194;2023-05-21T05:49:41;100404.34;;;33.16;19.27
35952;BME280;22035;51.406;16.194;2023-05-21T05:52:07;100406.00;;;33.04;19.41
35952;BME280;22035;51.406;16.194;2023-05-21T05:54:33;100400.74;;;33.09;19.38
35952;BME280;22035;51.406;16.194;2023-05-21T05:56:58;100398.97;;;33.02;19.43
35952;BME280;22035;51.406;16.194;2023-05-21T05:59:24;100398.74;;;33.20;19.27
35952;BME280;22035;51.406;16.194;2023-05-21T06:01:50;100400.49;;;33.19;19.27
35952;BME280;22035;51.406;16.194;2023-05-21T06:04:15;100396.05;;;33.02;19.48
35952;BME280;22035;51.406;16.194;2023-05-21T06:06:41;100394.14;;;32.98;19.53
35952;BME280;22035;51.406;16.194;2023-05-21T06:09:07;100391.26;;;33.14;19.34
35952;BME280;22035;51.406;16.194;2023-05-21T06:11:32;100390.84;;;33.30;19.19
35952;BME280;22035;51.406;16.194;2023-05-21T06:13:58;100390.43;;;33.10;19.42
35952;BME280;22035;51.406;16.194;2023-05-21T06:16:24;100390.67;;;33.14;19.39
35952;BME280;22035;51.406;16.194;2023-05-21T06:18:49;100388.00;;;33.04;19.48
35952;BME280;22035;51.406;16.194;2023-05-21T06:21:15;100391.04;;;33.04;19.49
35952;BME280;22035;51.406;16.194;2023-05-21T06:23:41;100390.55;;;33.16;19.36
35952;BME280;22035;51.406;16.194;2023-05-21T06:26:06;100387.74;;;33.41;19.11
35952;BME280;22035;51.406;16.194;2023-05-21T06:28:32;100386.69;;;33.27;19.26
35952;BME280;22035;51.406;16.194;2023-05-21T06:30:58;100385.29;;;33.16;19.36
35952;BME280;22035;51.406;16.194;2023-05-21T06:33:23;100382.65;;;33.36;19.18
35952;BME280;22035;51.406;16.194;2023-05-21T06:35:50;100382.26;;;33.27;19.28
35952;BME280;22035;51.406;16.194;2023-05-21T06:38:15;100379.74;;;33.45;19.08
35952;BME280;22035;51.406;16.194;2023-05-21T06:40:41;100379.63;;;33.46;19.08
35952;BME280;22035;51.406;16.194;2023-05-21T06:43:07;100382.76;;;33.41;19.12
35952;BME280;22035;51.406;16.194;2023-05-21T06:45:32;100377.81;;;33.48;19.07
35952;BME280;22035;51.406;16.194;2023-05-21T06:47:58;100374.44;;;33.44;19.12
35952;BME280;22035;51.406;16.194;2023-05-21T06:50:24;100373.74;;;33.52;19.06
35952;BME280;22035;51.406;16.194;2023-05-21T06:52:49;100374.39;;;33.46;19.13
35952;BME280;22035;51.406;16.194;2023-05-21T06:55:15;100376.96;;;33.52;19.07
35952;BME280;22035;51.406;16.194;2023-05-21T06:57:41;100374.53;;;33.52;19.07
35952;BME280;22035;51.406;16.194;2023-05-21T07:00:07;100379.17;;;33.52;19.08
35952;BME280;22035;51.406;16.194;2023-05-21T07:02:33;100378.59;;;33.54;19.06
35952;BME280;22035;51.406;16.194;2023-05-21T07:04:59;100376.69;;;33.53;19.08
35952;BME280;22035;51.406;16.194;2023-05-21T07:07:24;100374.94;;;33.51;19.10
35952;BME280;22035;51.406;16.194;2023-05-21T07:09:50;100375.92;;;33.53;19.09
35952;BME280;22035;51.406;16.194;2023-05-21T07:12:16;100377.19;;;33.52;19.09
35952;BME280;22035;51.406;16.194;2023-05-21T07:14:41;100378.13;;;33.49;19.15
35952;BME280;22035;51.406;16.194;2023-05-21T07:17:07;100380.41;;;33.54;19.09
35952;BME280;22035;51.406;16.194;2023-05-21T07:19:33;100378.20;;;33.53;19.10
35952;BME280;22035;51.406;16.194;2023-05-21T07:21:58;100377.46;;;33.52;19.13
35952;BME280;22035;51.406;16.194;2023-05-21T07:24:24;100377.32;;;33.52;19.13
35952;BME280;22035;51.406;16.194;2023-05-21T07:26:50;100378.46;;;33.55;19.11
35952;BME280;22035;51.406;16.194;2023-05-21T07:29:15;100376.27;;;33.50;19.17
35952;BME280;22035;51.406;16.194;2023-05-21T07:31:41;100377.27;;;33.47;19.22
35952;BME280;22035;51.406;16.194;2023-05-21T07:34:07;100379.94;;;33.51;19.20
35952;BME280;22035;51.406;16.194;2023-05-21T07:36:32;100377.08;;;33.50;19.21
35952;BME280;22035;51.406;16.194;2023-05-21T07:38:58;100373.26;;;33.49;19.21
35952;BME280;22035;51.406;16.194;2023-05-21T07:41:24;100373.48;;;33.46;19.27
35952;BME280;22035;51.406;16.194;2023-05-21T07:43:49;100372.69;;;33.47;19.26
35952;BME280;22035;51.406;16.194;2023-05-21T07:46:15;100374.16;;;33.46;19.27
35952;BME280;22035;51.406;16.194;2023-05-21T07:48:41;100374.97;;;33.50;19.23
35952;BME280;22035;51.406;16.194;2023-05-21T07:51:06;100375.31;;;33.48;19.26
35952;BME280;22035;51.406;16.194;2023-05-21T07:53:32;100376.68;;;33.51;19.21
35952;BME280;22035;51.406;16.194;2023-05-21T07:55:58;100376.14;;;33.52;19.21
35952;BME280;22035;51.406;16.194;2023-05-21T07:58:23;100371.81;;;33.51;19.24
35952;BME280;22035;51.406;16.194;2023-05-21T08:00:49;100370.67;;;33.49;19.28
35952;BME280;22035;51.406;16.194;2023-05-21T08:03:16;100370.02;;;33.51;19.26
35952;BME280;22035;51.406;16.194;2023-05-21T08:05:42;100370.67;;;33.55;19.22
35952;BME280;22035;51.406;16.194;2023-05-21T08:08:08;100366.93;;;33.53;19.25
35952;BME280;22035;51.406;16.194;2023-05-21T08:10:33;100373.67;;;33.51;19.30
35952;BME280;22035;51.406;16.194;2023-05-21T08:12:59;100372.66;;;33.49;19.29
35952;BME280;22035;51.406;16.194;2023-05-21T08:15:25;100369.34;;;33.56;19.26
35952;BME280;22035;51.406;16.194;2023-05-21T08:17:50;100371.78;;;33.50;19.31
35952;BME280;22035;51.406;16.194;2023-05-21T08:20:16;100370.36;;;33.47;19.35
35952;BME280;22035;51.406;16.194;2023-05-21T08:22:42;100373.29;;;33.55;19.31
35952;BME280;22035;51.406;16.194;2023-05-21T08:25:08;100372.97;;;33.55;19.26
35952;BME280;22035;51.406;16.194;2023-05-21T08:27:34;100371.39;;;33.55;19.33
35952;BME280;22035;51.406;16.194;2023-05-21T08:29:59;100374.11;;;33.57;19.29
35952;BME280;22035;51.406;16.194;2023-05-21T08:32:25;100373.72;;;33.48;19.42
35952;BME280;22035;51.406;16.194;2023-05-21T08:34:51;100371.11;;;33.48;19.44
35952;BME280;22035;51.406;16.194;2023-05-21T08:37:16;100370.29;;;33.47;19.44
35952;BME280;22035;51.406;16.194;2023-05-21T08:39:42;100374.41;;;33.50;19.46
35952;BME280;22035;51.406;16.194;2023-05-21T08:42:11;100377.16;;;33.49;19.45
35952;BME280;22035;51.406;16.194;2023-05-21T08:44:42;100377.29;;;33.44;19.52
35952;BME280;22035;51.406;16.194;2023-05-21T08:47:09;100377.71;;;33.46;19.56
35952;BME280;22035;51.406;16.194;2023-05-21T08:49:37;100377.17;;;33.51;19.46
35952;BME280;22035;51.406;16.194;2023-05-21T08:52:03;100375.76;;;33.54;19.48
35952;BME280;22035;51.406;16.194;2023-05-21T08:54:30;100370.41;;;33.48;19.57
35952;BME280;22035;51.406;16.194;2023-05-21T08:56:57;100367.79;;;33.45;19.59
35952;BME280;22035;51.406;16.194;2023-05-21T08:59:24;100365.77;;;33.45;19.59
35952;BME280;22035;51.406;16.194;2023-05-21T09:01:50;100370.50;;;33.47;19.60
35952;BME280;22035;51.406;16.194;2023-05-21T09:04:17;100371.69;;;33.49;19.62
35952;BME280;22035;51.406;16.194;2023-05-21T09:06:43;100371.72;;;33.45;19.65
35952;BME280;22035;51.406;16.194;2023-05-21T09:09:15;100367.03;;;33.40;19.72
35952;BME280;22035;51.406;16.194;2023-05-21T09:11:42;100371.21;;;33.44;19.71
35952;BME280;22035;51.406;16.194;2023-05-21T09:14:08;100370.44;;;33.39;19.72
35952;BME280;22035;51.406;16.194;2023-05-21T09:16:35;100365.22;;;33.30;19.89
35952;BME280;22035;51.406;16.194;2023-05-21T09:19:01;100366.80;;;33.35;19.80
35952;BME280;22035;51.406;16.194;2023-05-21T09:21:28;100368.52;;;33.41;19.77
35952;BME280;22035;51.406;16.194;2023-05-21T09:23:55;100365.17;;;33.49;19.72
35952;BME280;22035;51.406;16.194;2023-05-21T09:26:21;100361.00;;;33.40;19.77
35952;BME280;22035;51.406;16.194;2023-05-21T09:28:47;100360.86;;;33.27;19.95
35952;BME280;22035;51.406;16.194;2023-05-21T09:31:13;100353.09;;;33.26;20.00
35952;BME280;22035;51.406;16.194;2023-05-21T09:33:44;100352.64;;;33.45;19.78
35952;BME280;22035;51.406;16.194;2023-05-21T09:36:10;100354.38;;;33.42;19.87
35952;BME280;22035;51.406;16.194;2023-05-21T09:38:37;100346.84;;;33.52;19.75
35952;BME280;22035;51.406;16.194;2023-05-21T09:41:03;100345.91;;;33.41;19.88
35952;BME280;22035;51.406;16.194;2023-05-21T09:43:29;100349.79;;;33.31;20.03
35952;BME280;22035;51.406;16.194;2023-05-21T09:45:56;100350.83;;;33.27;20.08
35952;BME280;22035;51.406;16.194;2023-05-21T09:48:38;100344.53;;;33.38;19.96
35952;BME280;22035;51.406;16.194;2023-05-21T09:51:09;100340.49;;;33.39;20.00
35952;BME280;22035;51.406;16.194;2023-05-21T09:53:35;100345.00;;;33.46;19.92
35952;BME280;22035;51.406;16.194;2023-05-21T09:56:01;100342.74;;;33.42;19.92
35952;BME280;22035;51.406;16.194;2023-05-21T09:58:27;100340.60;;;33.32;20.08
35952;BME280;22035;51.406;16.194;2023-05-21T10:00:53;100345.87;;;33.37;20.06
35952;BME280;22035;51.406;16.194;2023-05-21T10:03:22;100342.57;;;33.29;20.10
35952;BME280;22035;51.406;16.194;2023-05-21T10:05:50;100343.77;;;33.23;20.21
35952;BME280;22035;51.406;16.194;2023-05-21T10:08:19;100338.62;;;33.27;20.17
35952;BME280;22035;51.406;16.194;2023-05-21T10:10:48;100335.34;;;33.28;20.07
35952;BME280;22035;51.406;16.194;2023-05-21T10:13:17;100336.67;;;33.36;20.04
35952;BME280;22035;51.406;16.194;2023-05-21T10:15:45;100330.45;;;33.44;19.98
35952;BME280;22035;51.406;16.194;2023-05-21T10:18:12;100323.71;;;33.40;20.09
35952;BME280;22035;51.406;16.194;2023-05-21T10:20:39;100325.79;;;33.41;20.08
35952;BME280;22035;51.406;16.194;2023-05-21T10:23:05;100333.47;;;33.34;20.15
35952;BME280;22035;51.406;16.194;2023-05-21T10:25:32;100328.84;;;33.25;20.23
35952;BME280;22035;51.406;16.194;2023-05-21T10:27:58;100325.06;;;33.24;20.29
35952;BME280;22035;51.406;16.194;2023-05-21T10:30:24;100322.01;;;33.43;20.02
35952;BME280;22035;51.406;16.194;2023-05-21T10:32:50;100320.76;;;33.28;20.23
35952;BME280;22035;51.406;16.194;2023-05-21T10:35:16;100327.32;;;33.42;20.10
35952;BME280;22035;51.406;16.194;2023-05-21T10:37:42;100320.46;;;33.43;20.11
35952;BME280;22035;51.406;16.194;2023-05-21T10:40:09;100317.51;;;33.39;20.18
35952;BME280;22035;51.406;16.194;2023-05-21T10:42:58;100308.08;;;33.49;20.06
35952;BME280;22035;51.406;16.194;2023-05-21T10:45:38;100312.14;;;33.47;20.10
35952;BME280;22035;51.406;16.194;2023-05-21T10:48:18;100313.23;;;33.35;20.25
35952;BME280;22035;51.406;16.194;2023-05-21T10:51:12;100305.03;;;33.33;20.29
35952;BME280;22035;51.406;16.194;2023-05-21T10:53:51;100304.42;;;33.40;20.22
35952;BME280;22035;51.406;16.194;2023-05-21T10:56:23;100303.31;;;33.26;20.38
35952;BME280;22035;51.406;16.194;2023-05-21T10:59:03;100312.26;;;33.35;20.31
35952;BME280;22035;51.406;16.194;2023-05-21T11:01:35;100305.54;;;33.56;20.03
35952;BME280;22035;51.406;16.194;2023-05-21T11:04:02;100310.78;;;33.41;20.24
35952;BME280;22035;51.406;16.194;2023-05-21T11:06:28;100310.85;;;33.36;20.32
35952;BME280;22035;51.406;16.194;2023-05-21T11:08:54;100302.46;;;33.38;20.29
35952;BME280;22035;51.406;16.194;2023-05-21T11:11:52;100303.39;;;33.37;20.24
35952;BME280;22035;51.406;16.194;2023-05-21T11:14:30;100299.81;;;33.39;20.30
35952;BME280;22035;51.406;16.194;2023-05-21T11:16:56;100298.97;;;33.37;20.32
35952;BME280;22035;51.406;16.194;2023-05-21T11:19:31;100294.80;;;33.34;20.32
35952;BME280;22035;51.406;16.194;2023-05-21T11:21:58;100295.65;;;33.34;20.35
35952;BME280;22035;51.406;16.194;2023-05-21T11:24:24;100296.90;;;33.34;20.33
35952;BME280;22035;51.406;16.194;2023-05-21T11:27:05;100292.46;;;33.36;20.31
35952;BME280;22035;51.406;16.194;2023-05-21T11:29:35;100292.18;;;33.51;20.12
35952;BME280;22035;51.406;16.194;2023-05-21T11:32:01;100283.37;;;33.42;20.24
35952;BME280;22035;51.406;16.194;2023-05-21T11:34:35;100287.30;;;33.47;20.15
35952;BME280;22035;51.406;16.194;2023-05-21T11:37:34;100286.04;;;33.39;20.24
35952;BME280;22035;51.406;16.194;2023-05-21T11:40:20;100288.08;;;33.43;20.24
35952;BME280;22035;51.406;16.194;2023-05-21T11:42:49;100283.42;;;33.46;20.19
35952;BME280;22035;51.406;16.194;2023-05-21T11:45:17;100284.91;;;33.34;20.35
35952;BME280;22035;51.406;16.194;2023-05-21T11:47:43;100281.13;;;33.51;20.15
35952;BME280;22035;51.406;16.194;2023-05-21T11:50:11;100279.15;;;33.38;20.32
35952;BME280;22035;51.406;16.194;2023-05-21T11:52:38;100277.88;;;33.41;20.30
35952;BME280;22035;51.406;16.194;2023-05-21T11:55:05;100277.10;;;33.49;20.22
35952;BME280;22035;51.406;16.194;2023-05-21T11:57:31;100273.18;;;33.38;20.29
35952;BME280;22035;51.406;16.194;2023-05-21T11:59:57;100268.99;;;33.42;20.28
35952;BME280;22035;51.406;16.194;2023-05-21T12:02:26;100268.03;;;33.55;20.17
35952;BME280;22035;51.406;16.194;2023-05-21T12:04:52;100266.66;;;33.51;20.19
35952;BME280;22035;51.406;16.194;2023-05-21T12:07:19;100262.01;;;33.49;20.24
35952;BME280;22035;51.406;16.194;2023-05-21T12:09:46;100266.99;;;33.43;20.31
35952;BME280;22035;51.406;16.194;2023-05-21T12:12:18;100263.10;;;33.48;20.24
35952;BME280;22035;51.406;16.194;2023-05-21T12:14:45;100264.62;;;33.63;20.06
35952;BME280;22035;51.406;16.194;2023-05-21T12:17:11;100266.16;;;33.41;20.33
35952;BME280;22035;51.406;16.194;2023-05-21T12:19:37;100270.37;;;33.51;20.22
35952;BME280;22035;51.406;16.194;2023-05-21T12:22:04;100271.75;;;33.60;20.14
35952;BME280;22035;51.406;16.194;2023-05-21T12:24:31;100274.35;;;33.58;20.15
35952;BME280;22035;51.406;16.194;2023-05-21T12:26:57;100268.38;;;33.50;20.22
35952;BME280;22035;51.406;16.194;2023-05-21T12:29:23;100269.44;;;33.46;20.27
35952;BME280;22035;51.406;16.194;2023-05-21T12:31:49;100271.46;;;33.53;20.19
35952;BME280;22035;51.406;16.194;2023-05-21T12:34:15;100273.61;;;33.59;20.16
35952;BME280;22035;51.406;16.194;2023-05-21T12:36:41;100270.09;;;33.51;20.26
35952;BME280;22035;51.406;16.194;2023-05-21T12:39:07;100267.48;;;33.41;20.37